Time;durP1;ratioP1;P1;durP2;ratioP2;P2;SDS_P1;SDS_P2;PMS_P1;PMS_P2;Temp;Humidity;BMP_temperature;BMP_pressure;BME280_temperature;BME280_humidity;BME280_pressure;Samples;Min_cycle;Max_cycle;Signal;HPM_P1;HPM_P2
2022/11/09 00:00:40;;;;;;;2.83;1.00;;;;;;;;;;5025113;28;20038;-77
2022/11/09 00:03:08;;;;;;;1.70;1.10;;;;;;;;;;5027081;28;20044;-77
2022/11/09 00:05:37;;;;;;;3.33;0.90;;;;;;;;;;5027081;28;20470;-77
2022/11/09 00:08:06;;;;;;;2.40;1.20;;;;;;;;;;5014921;28;20028;-77
2022/11/09 00:10:33;;;;;;;3.07;1.13;;;;;;;;;;5016217;28;20033;-76
2022/11/09 00:12:59;;;;;;;1.87;1.10;;;;;;;;;;5030285;28;20120;-77
2022/11/09 00:15:25;;;;;;;2.20;1.07;;;;;;;;;;5017805;28;20065;-77
2022/11/09 00:17:51;;;;;;;3.23;0.83;;;;;;;;;;5032055;28;20064;-77
2022/11/09 00:20:22;;;;;;;2.13;1.47;;;;;;;;;;5030036;28;20061;-77
2022/11/09 00:22:49;;;;;;;1.70;1.07;;;;;;;;;;5029850;28;20030;-75
2022/11/09 00:25:18;;;;;;;6.03;1.17;;;;;;;;;;5030753;28;20394;-76
2022/11/09 00:27:44;;;;;;;4.60;1.40;;;;;;;;;;5030702;28;20069;-77
2022/11/09 00:30:10;;;;;;;6.20;1.97;;;;;;;;;;5017093;28;20038;-76
2022/11/09 00:32:36;;;;;;;5.17;1.23;;;;;;;;;;5016590;28;20033;-77
2022/11/09 00:35:03;;;;;;;1.80;1.10;;;;;;;;;;5016778;28;20549;-76
2022/11/09 00:37:29;;;;;;;1.93;0.90;;;;;;;;;;5028002;28;20049;-77
2022/11/09 00:39:57;;;;;;;2.57;1.10;;;;;;;;;;5033004;28;20485;-78
2022/11/09 00:42:23;;;;;;;2.47;1.30;;;;;;;;;;5028851;28;20029;-77
2022/11/09 00:44:50;;;;;;;3.47;1.47;;;;;;;;;;5018285;28;20022;-77
2022/11/09 00:47:16;;;;;;;2.30;1.17;;;;;;;;;;5019261;28;20418;-76
2022/11/09 00:49:42;;;;;;;3.58;1.20;;;;;;;;;;5019497;28;20026;-76
2022/11/09 00:52:08;;;;;;;3.40;1.40;;;;;;;;;;5016764;28;20033;-77
2022/11/09 00:54:34;;;;;;;2.53;1.20;;;;;;;;;;5019774;28;20026;-77
2022/11/09 00:57:00;;;;;;;1.43;0.90;;;;;;;;;;5016933;28;20121;-77
2022/11/09 00:59:26;;;;;;;4.90;1.07;;;;;;;;;;5016165;28;20117;-76
2022/11/09 01:01:52;;;;;;;2.70;1.20;;;;;;;;;;5017884;28;20116;-77
2022/11/09 01:04:18;;;;;;;2.97;1.27;;;;;;;;;;5017177;28;20021;-77
2022/11/09 01:06:44;;;;;;;3.13;1.03;;;;;;;;;;5017982;28;20021;-77
2022/11/09 01:09:11;;;;;;;4.77;1.43;;;;;;;;;;5017729;28;20044;-77
2022/11/09 01:11:37;;;;;;;2.03;1.20;;;;;;;;;;5015468;28;20037;-76
2022/11/09 01:14:04;;;;;;;1.47;1.17;;;;;;;;;;5017428;28;20040;-76
2022/11/09 01:16:30;;;;;;;3.40;1.37;;;;;;;;;;5018086;28;20414;-76
2022/11/09 01:18:56;;;;;;;4.70;1.10;;;;;;;;;;5015923;28;20474;-76
2022/11/09 01:21:22;;;;;;;2.90;1.30;;;;;;;;;;5031051;28;20116;-78
2022/11/09 01:23:48;;;;;;;2.77;0.93;;;;;;;;;;5030503;28;20029;-77
2022/11/09 01:26:16;;;;;;;2.20;0.80;;;;;;;;;;5015651;28;20022;-75
2022/11/09 01:28:42;;;;;;;3.33;1.10;;;;;;;;;;5030894;28;20037;-77
2022/11/09 01:31:11;;;;;;;3.80;1.10;;;;;;;;;;5017228;28;20037;-77
2022/11/09 01:33:37;;;;;;;2.53;1.13;;;;;;;;;;5029807;28;20030;-77
2022/11/09 01:36:07;;;;;;;1.97;0.90;;;;;;;;;;5015052;28;20029;-77
2022/11/09 01:38:33;;;;;;;1.77;0.80;;;;;;;;;;5030137;28;20029;-77
2022/11/09 01:40:59;;;;;;;2.37;0.90;;;;;;;;;;5016770;28;20453;-76
2022/11/09 01:43:28;;;;;;;2.10;1.00;;;;;;;;;;5015885;28;21543;-75
2022/11/09 01:46:03;;;;;;;3.53;1.13;;;;;;;;;;5013744;28;20030;-77
2022/11/09 01:48:38;;;;;;;4.00;1.63;;;;;;;;;;5014178;28;20034;-76
2022/11/09 01:51:11;;;;;;;5.73;1.83;;;;;;;;;;5016529;28;20045;-77
2022/11/09 01:53:39;;;;;;;4.20;0.97;;;;;;;;;;5025148;28;20033;-77
2022/11/09 01:56:07;;;;;;;4.30;1.43;;;;;;;;;;5027378;28;20853;-77
2022/11/09 01:58:37;;;;;;;2.53;0.90;;;;;;;;;;5015198;28;20034;-76
2022/11/09 02:01:09;;;;;;;6.43;1.10;;;;;;;;;;5017521;28;20096;-76
2022/11/09 02:03:37;;;;;;;2.80;1.20;;;;;;;;;;5023515;28;20092;-77
2022/11/09 02:06:08;;;;;;;2.77;0.80;;;;;;;;;;5033206;28;20445;-76
2022/11/09 02:08:34;;;;;;;1.70;1.03;;;;;;;;;;5016466;28;20450;-77
2022/11/09 02:11:06;;;;;;;2.60;0.90;;;;;;;;;;5028979;28;20044;-77
2022/11/09 02:13:33;;;;;;;3.42;1.15;;;;;;;;;;5017392;28;20053;-77
2022/11/09 02:15:59;;;;;;;1.73;0.80;;;;;;;;;;5022017;28;20076;-77
2022/11/09 02:18:26;;;;;;;2.60;0.87;;;;;;;;;;5016755;28;20037;-76
2022/11/09 02:20:53;;;;;;;2.73;0.67;;;;;;;;;;5014813;28;20482;-76
2022/11/09 02:23:22;;;;;;;2.80;1.03;;;;;;;;;;5022481;28;20030;-77
2022/11/09 02:25:53;;;;;;;3.23;1.13;;;;;;;;;;5015898;28;20061;-77
2022/11/09 02:28:20;;;;;;;6.20;1.30;;;;;;;;;;5029394;28;20120;-77
2022/11/09 02:30:48;;;;;;;2.20;0.97;;;;;;;;;;5014967;28;20069;-77
2022/11/09 02:33:14;;;;;;;4.60;1.13;;;;;;;;;;5016038;28;20045;-76
2022/11/09 02:35:40;;;;;;;5.23;1.30;;;;;;;;;;5015970;28;20034;-76
2022/11/09 02:38:10;;;;;;;4.40;1.10;;;;;;;;;;5020249;28;20053;-77
2022/11/09 02:40:37;;;;;;;4.67;1.20;;;;;;;;;;5020425;28;20029;-75
2022/11/09 02:43:05;;;;;;;5.43;1.00;;;;;;;;;;5015298;28;20025;-77
2022/11/09 02:45:31;;;;;;;6.97;1.20;;;;;;;;;;5027425;28;20034;-76
2022/11/09 02:47:57;;;;;;;3.47;0.90;;;;;;;;;;5015960;28;20030;-76
2022/11/09 02:50:24;;;;;;;12.20;1.30;;;;;;;;;;5014824;28;20095;-77
2022/11/09 02:52:50;;;;;;;8.63;1.43;;;;;;;;;;5016404;28;20104;-77
2022/11/09 02:55:18;;;;;;;2.10;0.80;;;;;;;;;;5016173;28;20602;-77
2022/11/09 02:57:44;;;;;;;7.20;2.00;;;;;;;;;;5026862;28;20030;-77
2022/11/09 03:00:10;;;;;;;4.93;1.03;;;;;;;;;;5028865;28;20037;-77
2022/11/09 03:02:37;;;;;;;6.07;1.43;;;;;;;;;;5016495;28;20443;-76
2022/11/09 03:05:03;;;;;;;2.90;1.30;;;;;;;;;;5024286;28;20030;-77
2022/11/09 03:07:29;;;;;;;3.20;1.27;;;;;;;;;;5015530;28;20037;-76
2022/11/09 03:09:55;;;;;;;3.97;1.20;;;;;;;;;;5030724;28;20044;-77
2022/11/09 03:12:27;;;;;;;3.20;1.17;;;;;;;;;;5027297;28;20454;-77
2022/11/09 03:14:54;;;;;;;6.57;1.63;;;;;;;;;;5016149;28;20018;-76
2022/11/09 03:17:20;;;;;;;4.37;1.40;;;;;;;;;;5026389;28;20029;-77
2022/11/09 03:19:46;;;;;;;7.57;1.50;;;;;;;;;;5014865;28;20896;-76
2022/11/09 03:22:14;;;;;;;3.77;1.43;;;;;;;;;;5016572;28;20037;-77
2022/11/09 03:24:40;;;;;;;6.07;1.13;;;;;;;;;;5014078;28;20033;-77
2022/11/09 03:27:07;;;;;;;5.20;1.07;;;;;;;;;;5016120;28;20056;-77
2022/11/09 03:29:33;;;;;;;4.87;1.57;;;;;;;;;;5022398;28;20025;-77
2022/11/09 03:31:59;;;;;;;3.87;1.00;;;;;;;;;;5015284;28;20071;-77
2022/11/09 03:34:25;;;;;;;8.00;1.00;;;;;;;;;;5017993;28;20033;-77
2022/11/09 03:36:51;;;;;;;8.47;1.47;;;;;;;;;;5015426;28;20033;-77
2022/11/09 03:39:17;;;;;;;6.60;1.17;;;;;;;;;;5015769;28;20064;-77
2022/11/09 03:41:43;;;;;;;3.37;0.87;;;;;;;;;;5026451;28;20041;-77
2022/11/09 03:44:09;;;;;;;5.00;1.43;;;;;;;;;;5014648;28;20034;-76
2022/11/09 03:46:35;;;;;;;5.57;1.07;;;;;;;;;;5013104;28;20048;-76
2022/11/09 03:49:01;;;;;;;4.40;1.30;;;;;;;;;;5019662;28;20038;-77
2022/11/09 03:51:27;;;;;;;4.17;1.17;;;;;;;;;;5018261;28;20045;-77
2022/11/09 03:53:53;;;;;;;4.53;1.47;;;;;;;;;;5030650;28;20033;-77
2022/11/09 03:56:22;;;;;;;7.90;1.30;;;;;;;;;;5019910;28;20104;-76
2022/11/09 03:58:50;;;;;;;3.23;1.27;;;;;;;;;;5033790;28;20037;-75
2022/11/09 04:01:16;;;;;;;3.73;1.30;;;;;;;;;;5019264;28;20065;-77
2022/11/09 04:03:42;;;;;;;3.73;1.07;;;;;;;;;;5017553;28;20131;-76
2022/11/09 04:06:10;;;;;;;3.27;1.20;;;;;;;;;;5016795;28;20062;-76
2022/11/09 04:08:36;;;;;;;3.43;1.43;;;;;;;;;;5018689;28;20033;-77
2022/11/09 04:11:02;;;;;;;4.57;1.30;;;;;;;;;;5017902;28;20048;-77
2022/11/09 04:13:28;;;;;;;3.97;1.30;;;;;;;;;;5030913;28;20131;-77
2022/11/09 04:15:56;;;;;;;3.37;1.37;;;;;;;;;;5018141;28;20634;-76
2022/11/09 04:18:22;;;;;;;3.90;1.33;;;;;;;;;;5017294;28;20034;-77
2022/11/09 04:20:48;;;;;;;2.90;1.47;;;;;;;;;;5016722;28;20044;-77
2022/11/09 04:23:14;;;;;;;4.57;1.10;;;;;;;;;;5017663;28;20038;-76
2022/11/09 04:25:41;;;;;;;3.47;1.33;;;;;;;;;;5029952;28;20036;-77
2022/11/09 04:28:08;;;;;;;3.93;1.00;;;;;;;;;;5014852;28;20033;-76
2022/11/09 04:30:34;;;;;;;3.10;1.37;;;;;;;;;;5017581;28;20053;-76
2022/11/09 04:33:01;;;;;;;4.50;1.30;;;;;;;;;;5019089;28;20037;-77
2022/11/09 04:35:30;;;;;;;2.13;0.70;;;;;;;;;;5019504;28;20045;-76
2022/11/09 04:37:57;;;;;;;5.20;1.10;;;;;;;;;;5019909;28;20124;-77
2022/11/09 04:40:24;;;;;;;4.43;1.40;;;;;;;;;;5026595;28;20048;-76
2022/11/09 04:42:50;;;;;;;4.77;1.30;;;;;;;;;;5025738;28;20037;-77
2022/11/09 04:45:16;;;;;;;6.47;1.33;;;;;;;;;;5029807;28;20446;-77
2022/11/09 04:47:42;;;;;;;7.20;1.63;;;;;;;;;;5015888;28;20022;-77
2022/11/09 04:50:11;;;;;;;4.50;1.07;;;;;;;;;;5030140;28;20104;-76
2022/11/09 04:52:37;;;;;;;5.13;1.20;;;;;;;;;;5026860;28;20121;-77
2022/11/09 04:55:03;;;;;;;8.53;1.60;;;;;;;;;;5013512;28;20030;-77
2022/11/09 04:57:29;;;;;;;5.70;1.53;;;;;;;;;;5017029;28;20040;-75
2022/11/09 04:59:55;;;;;;;3.57;1.40;;;;;;;;;;5017260;28;20021;-76
2022/11/09 05:02:21;;;;;;;8.07;1.10;;;;;;;;;;5017077;28;20518;-77
2022/11/09 05:04:47;;;;;;;4.90;1.00;;;;;;;;;;5017831;28;20378;-76
2022/11/09 05:07:16;;;;;;;5.57;1.63;;;;;;;;;;5020789;28;20030;-77
2022/11/09 05:09:42;;;;;;;11.10;1.60;;;;;;;;;;5016017;28;20107;-77
2022/11/09 05:12:08;;;;;;;5.90;1.20;;;;;;;;;;5032094;28;20038;-76
2022/11/09 05:14:34;;;;;;;4.83;1.37;;;;;;;;;;5019192;28;20037;-77
2022/11/09 05:17:00;;;;;;;2.15;1.23;;;;;;;;;;5021463;28;20036;-77
2022/11/09 05:19:26;;;;;;;5.10;1.10;;;;;;;;;;5019674;28;20044;-77
2022/11/09 05:21:52;;;;;;;5.00;1.03;;;;;;;;;;5029423;28;20526;-77
2022/11/09 05:24:20;;;;;;;7.13;1.90;;;;;;;;;;5017515;28;20050;-75
2022/11/09 05:26:46;;;;;;;10.13;1.67;;;;;;;;;;5028829;28;20022;-77
2022/11/09 05:29:12;;;;;;;6.60;2.00;;;;;;;;;;5015485;28;20034;-77
2022/11/09 05:31:41;;;;;;;6.80;1.23;;;;;;;;;;5013464;28;20040;-77
2022/11/09 05:34:07;;;;;;;4.97;1.10;;;;;;;;;;5028950;28;20413;-76
2022/11/09 05:36:33;;;;;;;4.47;1.27;;;;;;;;;;5016503;28;20026;-76
2022/11/09 05:38:59;;;;;;;4.40;1.17;;;;;;;;;;5015460;28;20057;-77
2022/11/09 05:41:26;;;;;;;3.83;1.07;;;;;;;;;;5016436;28;20044;-76
2022/11/09 05:43:52;;;;;;;6.90;1.83;;;;;;;;;;5018567;28;20029;-76
2022/11/09 05:46:18;;;;;;;9.80;1.40;;;;;;;;;;5015726;28;20037;-77
2022/11/09 05:48:45;;;;;;;4.43;1.10;;;;;;;;;;5025602;28;20099;-77
2022/11/09 05:51:12;;;;;;;6.53;1.23;;;;;;;;;;5015823;28;20560;-76
2022/11/09 05:53:41;;;;;;;4.93;1.20;;;;;;;;;;5015766;28;20041;-77
2022/11/09 05:56:09;;;;;;;11.00;1.30;;;;;;;;;;5028844;28;20437;-76
2022/11/09 05:58:37;;;;;;;8.40;1.17;;;;;;;;;;5026453;28;20029;-76
2022/11/09 06:01:04;;;;;;;5.30;1.47;;;;;;;;;;5023391;28;20048;-77
2022/11/09 06:03:30;;;;;;;4.13;1.10;;;;;;;;;;5024198;28;20025;-77
2022/11/09 06:05:59;;;;;;;9.00;1.60;;;;;;;;;;5027884;28;20022;-76
2022/11/09 06:08:25;;;;;;;6.53;1.47;;;;;;;;;;5015522;28;20058;-77
2022/11/09 06:10:56;;;;;;;8.93;1.50;;;;;;;;;;5029130;28;20037;-77
2022/11/09 06:13:22;;;;;;;5.73;1.33;;;;;;;;;;5027664;28;20038;-76
2022/11/09 06:15:52;;;;;;;5.93;1.30;;;;;;;;;;5028588;28;20370;-76
2022/11/09 06:18:18;;;;;;;7.20;1.50;;;;;;;;;;5023763;28;20034;-77
2022/11/09 06:20:44;;;;;;;6.10;1.60;;;;;;;;;;5016294;28;20041;-76
2022/11/09 06:23:11;;;;;;;7.00;1.20;;;;;;;;;;5024690;28;20184;-76
2022/11/09 06:25:37;;;;;;;10.03;1.67;;;;;;;;;;5018145;28;20030;-77
2022/11/09 06:28:03;;;;;;;8.10;1.80;;;;;;;;;;5016474;28;20362;-76
2022/11/09 06:30:29;;;;;;;6.87;1.77;;;;;;;;;;5016819;28;20037;-77
2022/11/09 06:32:59;;;;;;;8.60;1.53;;;;;;;;;;5029142;28;20417;-76
2022/11/09 06:35:25;;;;;;;4.93;1.47;;;;;;;;;;5018481;28;20057;-77
2022/11/09 06:37:58;;;;;;;11.10;1.67;;;;;;;;;;5019557;28;20022;-76
2022/11/09 06:40:24;;;;;;;6.07;1.33;;;;;;;;;;5027525;28;20332;-76
2022/11/09 06:42:50;;;;;;;9.53;2.03;;;;;;;;;;5029983;28;20030;-77
2022/11/09 06:45:16;;;;;;;4.57;1.53;;;;;;;;;;5015612;28;20029;-77
2022/11/09 06:47:42;;;;;;;6.90;1.70;;;;;;;;;;5015107;28;20092;-76
2022/11/09 06:50:10;;;;;;;9.03;3.00;;;;;;;;;;5015258;28;20029;-77
2022/11/09 06:52:36;;;;;;;12.07;1.80;;;;;;;;;;5035786;28;20042;-78
2022/11/09 06:55:02;;;;;;;5.87;2.33;;;;;;;;;;5017184;28;20030;-77
2022/11/09 06:57:38;;;;;;;7.07;1.73;;;;;;;;;;5017871;28;20026;-77
2022/11/09 07:00:04;;;;;;;10.80;3.37;;;;;;;;;;5028318;28;20038;-77
2022/11/09 07:02:31;;;;;;;4.40;1.63;;;;;;;;;;5025523;28;20049;-78
2022/11/09 07:05:03;;;;;;;9.83;2.17;;;;;;;;;;5015161;28;20365;-75
2022/11/09 07:07:29;;;;;;;;;;;;;;;;;;5015982;28;20155;-77
2022/11/09 07:09:56;;;;;;;12.40;4.40;;;;;;;;;;5015624;28;19998;-77
2022/11/09 07:12:22;;;;;;;14.07;3.10;;;;;;;;;;5013829;28;20063;-77
2022/11/09 07:14:48;;;;;;;8.23;2.77;;;;;;;;;;5027681;28;20180;-77
2022/11/09 07:17:14;;;;;;;10.17;2.50;;;;;;;;;;5016299;28;20038;-76
2022/11/09 07:19:40;;;;;;;8.17;2.50;;;;;;;;;;5016144;28;20048;-77
2022/11/09 07:22:06;;;;;;;8.17;1.93;;;;;;;;;;5019388;28;20030;-77
2022/11/09 07:24:32;;;;;;;5.83;2.27;;;;;;;;;;5018482;28;20025;-76
2022/11/09 07:26:58;;;;;;;9.70;2.13;;;;;;;;;;5034017;28;20438;-76
2022/11/09 07:29:24;;;;;;;7.63;3.07;;;;;;;;;;5022631;28;20029;-77
2022/11/09 07:31:50;;;;;;;5.67;2.30;;;;;;;;;;5020310;28;20103;-76
2022/11/09 07:34:16;;;;;;;6.60;1.83;;;;;;;;;;5022194;28;21726;-76
2022/11/09 07:36:42;;;;;;;8.87;2.13;;;;;;;;;;5020819;28;20140;-78
2022/11/09 07:39:10;;;;;;;5.40;1.97;;;;;;;;;;5021713;28;20067;-76
2022/11/09 07:41:39;;;;;;;8.17;3.40;;;;;;;;;;5035285;28;20047;-76
2022/11/09 07:44:05;;;;;;;11.43;2.60;;;;;;;;;;5023028;28;20021;-77
2022/11/09 07:46:31;;;;;;;7.93;2.00;;;;;;;;;;5013565;28;20030;-77
2022/11/09 07:48:57;;;;;;;6.93;2.67;;;;;;;;;;5024826;28;20022;-77
2022/11/09 07:51:23;;;;;;;10.27;3.23;;;;;;;;;;5022534;28;20489;-77
2022/11/09 07:53:49;;;;;;;4.33;2.00;;;;;;;;;;5019590;28;20041;-77
2022/11/09 07:56:15;;;;;;;7.50;2.70;;;;;;;;;;5017935;28;20030;-75
2022/11/09 07:58:41;;;;;;;9.23;3.50;;;;;;;;;;5019806;28;20167;-75
2022/11/09 08:01:08;;;;;;;11.03;4.43;;;;;;;;;;5018867;28;20033;-76
2022/11/09 08:03:34;;;;;;;9.33;1.97;;;;;;;;;;5020647;28;20025;-75
2022/11/09 08:06:00;;;;;;;11.47;3.20;;;;;;;;;;5019826;28;20026;-75
2022/11/09 08:08:26;;;;;;;8.53;2.33;;;;;;;;;;5016133;28;21338;-76
2022/11/09 08:10:52;;;;;;;8.23;2.57;;;;;;;;;;5031570;28;20096;-75
2022/11/09 08:13:19;;;;;;;8.33;3.47;;;;;;;;;;5016280;28;20095;-76
2022/11/09 08:15:48;;;;;;;8.60;3.30;;;;;;;;;;5017897;28;20121;-76
2022/11/09 08:18:15;;;;;;;12.90;4.77;;;;;;;;;;5031930;28;20942;-76
2022/11/09 08:20:44;;;;;;;5.33;2.27;;;;;;;;;;5020505;28;20120;-76
2022/11/09 08:23:13;;;;;;;10.60;3.63;;;;;;;;;;5019919;28;20034;-75
2022/11/09 08:25:40;;;;;;;16.50;3.23;;;;;;;;;;5036186;28;20120;-76
2022/11/09 08:28:06;;;;;;;11.60;4.40;;;;;;;;;;5022672;28;20041;-75
2022/11/09 08:30:35;;;;;;;13.87;6.37;;;;;;;;;;5031093;28;20029;-76
2022/11/09 08:33:10;;;;;;;20.90;4.77;;;;;;;;;;5022187;28;20080;-77
2022/11/09 08:35:36;;;;;;;13.33;3.73;;;;;;;;;;5022504;28;20038;-76
2022/11/09 08:38:03;;;;;;;8.27;3.23;;;;;;;;;;5030551;28;20034;-75
2022/11/09 08:40:30;;;;;;;7.63;2.60;;;;;;;;;;5019615;28;20034;-76
2022/11/09 08:43:00;;;;;;;7.33;2.47;;;;;;;;;;5032415;28;20112;-77
2022/11/09 08:45:26;;;;;;;9.00;2.50;;;;;;;;;;5032056;28;20155;-75
2022/11/09 08:47:57;;;;;;;8.83;2.50;;;;;;;;;;5032227;28;20117;-76
2022/11/09 08:50:25;;;;;;;6.70;2.43;;;;;;;;;;5025975;28;20038;-74
2022/11/09 08:52:51;;;;;;;9.80;2.07;;;;;;;;;;5018266;28;20053;-76
2022/11/09 08:55:17;;;;;;;7.90;2.00;;;;;;;;;;5018760;28;20393;-76
2022/11/09 08:57:43;;;;;;;8.67;3.10;;;;;;;;;;5034363;28;20026;-77
2022/11/09 09:00:10;;;;;;;6.13;1.73;;;;;;;;;;5022295;28;20037;-76
2022/11/09 09:02:36;;;;;;;7.40;2.27;;;;;;;;;;5019019;28;20038;-77
2022/11/09 09:05:04;;;;;;;6.27;1.77;;;;;;;;;;5025170;28;20121;-76
2022/11/09 09:07:30;;;;;;;5.20;1.40;;;;;;;;;;5019095;28;20029;-77
2022/11/09 09:09:56;;;;;;;6.30;1.93;;;;;;;;;;5035391;28;20975;-75
2022/11/09 09:12:22;;;;;;;7.87;1.43;;;;;;;;;;5019267;28;20474;-77
2022/11/09 09:14:49;;;;;;;8.37;1.40;;;;;;;;;;5021250;28;20807;-76
2022/11/09 09:17:15;;;;;;;8.50;1.77;;;;;;;;;;5019670;28;20059;-77
2022/11/09 09:19:41;;;;;;;5.03;1.13;;;;;;;;;;5019806;28;20382;-77
2022/11/09 09:22:07;;;;;;;6.33;2.03;;;;;;;;;;5030237;28;20033;-77
2022/11/09 09:24:40;;;;;;;7.47;1.00;;;;;;;;;;5037506;28;20022;-76
2022/11/09 09:27:15;;;;;;;3.35;1.27;;;;;;;;;;5029774;28;20378;-76
2022/11/09 09:29:41;;;;;;;4.87;1.10;;;;;;;;;;5019194;28;20026;-77
2022/11/09 09:32:07;;;;;;;4.83;0.70;;;;;;;;;;5020897;28;20052;-76
2022/11/09 09:34:33;;;;;;;5.77;1.00;;;;;;;;;;5019430;28;20033;-76
2022/11/09 09:36:59;;;;;;;5.90;1.00;;;;;;;;;;5029503;28;20033;-77
2022/11/09 09:39:25;;;;;;;3.20;1.03;;;;;;;;;;5016201;28;20025;-76
2022/11/09 09:41:54;;;;;;;5.30;1.00;;;;;;;;;;5018057;28;20037;-75
2022/11/09 09:44:20;;;;;;;19.10;3.30;;;;;;;;;;5029399;28;20029;-75
2022/11/09 09:46:56;;;;;;;3.63;1.13;;;;;;;;;;5028803;28;20370;-76
2022/11/09 09:49:28;;;;;;;3.90;0.87;;;;;;;;;;5030814;28;20116;-76
2022/11/09 09:52:03;;;;;;;5.55;1.23;;;;;;;;;;5025532;28;20034;-77
2022/11/09 09:54:33;;;;;;;7.10;1.10;;;;;;;;;;5016840;28;20120;-77
2022/11/09 09:57:00;;;;;;;7.43;1.03;;;;;;;;;;5018104;28;20082;-76
2022/11/09 09:59:40;;;;;;;3.20;1.00;;;;;;;;;;5017712;28;20029;-76
2022/11/09 10:02:30;;;;;;;8.77;1.00;;;;;;;;;;5018757;28;20080;-77
2022/11/09 10:04:57;;;;;;;4.13;0.93;;;;;;;;;;5016924;28;20062;-76
2022/11/09 10:07:26;;;;;;;5.97;0.70;;;;;;;;;;5027545;28;20025;-76
2022/11/09 10:10:05;;;;;;;3.33;0.70;;;;;;;;;;5028782;28;20067;-77
2022/11/09 10:12:31;;;;;;;8.30;1.10;;;;;;;;;;5016993;28;20657;-76
2022/11/09 10:15:12;;;;;;;3.87;1.00;;;;;;;;;;5015284;28;20125;-76
2022/11/09 10:17:50;;;;;;;3.17;1.00;;;;;;;;;;5016844;28;20038;-76
2022/11/09 10:20:16;;;;;;;6.03;1.13;;;;;;;;;;5029723;28;20037;-77
2022/11/09 10:22:57;;;;;;;3.13;1.00;;;;;;;;;;5017153;28;20033;-76
2022/11/09 10:25:25;;;;;;;4.20;0.70;;;;;;;;;;5030048;28;20029;-76
2022/11/09 10:27:53;;;;;;;5.73;1.00;;;;;;;;;;5026499;28;20034;-76
2022/11/09 10:30:20;;;;;;;6.10;1.03;;;;;;;;;;5029133;28;20034;-76
2022/11/09 10:32:49;;;;;;;3.53;0.90;;;;;;;;;;5030365;28;20458;-76
2022/11/09 10:35:15;;;;;;;5.00;0.70;;;;;;;;;;5028398;28;20218;-76
2022/11/09 10:37:45;;;;;;;5.40;0.90;;;;;;;;;;5017156;28;20033;-76
2022/11/09 10:40:17;;;;;;;2.88;0.82;;;;;;;;;;5031801;28;20035;-76
2022/11/09 10:42:53;;;;;;;5.18;1.00;;;;;;;;;;5028212;28;20128;-75
2022/11/09 10:45:30;;;;;;;3.00;0.95;;;;;;;;;;5027620;28;20033;-76
2022/11/09 10:47:56;;;;;;;4.18;0.90;;;;;;;;;;5028802;28;20026;-76
2022/11/09 10:50:22;;;;;;;2.67;1.00;;;;;;;;;;5016169;28;20109;-76
2022/11/09 10:52:48;;;;;;;5.72;1.15;;;;;;;;;;5017889;28;20534;-76
2022/11/09 10:55:16;;;;;;;7.53;1.25;;;;;;;;;;5026318;28;20037;-76
2022/11/09 10:58:03;;;;;;;5.00;1.00;;;;;;;;;;5016680;28;20021;-76
2022/11/09 11:00:29;;;;;;;6.28;1.70;;;;;;;;;;5032891;28;20038;-76
2022/11/09 11:02:55;;;;;;;3.80;0.77;;;;;;;;;;5021501;28;20033;-76
2022/11/09 11:05:23;;;;;;;6.90;1.25;;;;;;;;;;5019253;28;20041;-76
2022/11/09 11:07:49;;;;;;;4.00;1.13;;;;;;;;;;5017469;28;20615;-76
2022/11/09 11:10:15;;;;;;;2.75;0.90;;;;;;;;;;5022286;28;20644;-75
2022/11/09 11:12:41;;;;;;;5.45;1.05;;;;;;;;;;5018413;28;20377;-75
2022/11/09 11:15:34;;;;;;;8.23;1.30;;;;;;;;;;5020577;28;20034;-75
2022/11/09 11:18:04;;;;;;;10.82;1.30;;;;;;;;;;5014317;28;20038;-76
2022/11/09 11:20:35;;;;;;;6.68;1.23;;;;;;;;;;5018605;28;20029;-76
2022/11/09 11:23:11;;;;;;;4.05;0.77;;;;;;;;;;5033942;28;20466;-79
2022/11/09 11:25:53;;;;;;;3.33;0.82;;;;;;;;;;5037160;28;21706;-76
2022/11/09 11:28:39;;;;;;;8.47;1.33;;;;;;;;;;5018013;28;20061;-76
2022/11/09 11:31:09;;;;;;;4.55;0.95;;;;;;;;;;5017960;28;20091;-76
2022/11/09 11:33:35;;;;;;;4.40;0.90;;;;;;;;;;5016376;28;20030;-75
2022/11/09 11:36:08;;;;;;;5.25;0.90;;;;;;;;;;5029512;28;20521;-76
2022/11/09 11:38:44;;;;;;;4.65;0.80;;;;;;;;;;5020842;28;20026;-76
2022/11/09 11:41:16;;;;;;;10.50;1.80;;;;;;;;;;5030473;28;20033;-76
2022/11/09 11:43:54;;;;;;;5.70;1.40;;;;;;;;;;5019069;28;20034;-76
2022/11/09 11:46:20;;;;;;;5.32;0.98;;;;;;;;;;5030695;28;20029;-76
2022/11/09 11:48:58;;;;;;;5.10;1.58;;;;;;;;;;5021255;28;20025;-75
2022/11/09 11:51:35;;;;;;;8.88;1.60;;;;;;;;;;5028964;28;20042;-75
2022/11/09 11:54:20;;;;;;;5.65;0.95;;;;;;;;;;5027184;28;20068;-75
2022/11/09 11:57:18;;;;;;;7.82;1.20;;;;;;;;;;5018195;28;20022;-75
2022/11/09 11:59:54;;;;;;;4.18;1.10;;;;;;;;;;5023187;28;20130;-76
2022/11/09 12:02:20;;;;;;;3.70;1.05;;;;;;;;;;5031565;28;20056;-75
2022/11/09 12:05:05;;;;;;;5.63;1.05;;;;;;;;;;5017090;28;20022;-75
2022/11/09 12:07:39;;;;;;;13.45;2.47;;;;;;;;;;5025177;28;20030;-75
2022/11/09 12:10:14;;;;;;;4.07;1.13;;;;;;;;;;5028226;28;20397;-76
2022/11/09 12:13:03;;;;;;;4.30;1.23;;;;;;;;;;5015827;28;20136;-75
2022/11/09 12:15:44;;;;;;;5.53;0.90;;;;;;;;;;5022223;28;20045;-75
2022/11/09 12:18:14;;;;;;;6.38;1.60;;;;;;;;;;5029626;28;20036;-75
2022/11/09 12:20:57;;;;;;;7.20;1.77;;;;;;;;;;5016737;28;20029;-76
2022/11/09 12:23:42;;;;;;;5.25;1.13;;;;;;;;;;5024289;28;20033;-76
2022/11/09 12:26:27;;;;;;;6.57;1.42;;;;;;;;;;5015948;28;20466;-74
2022/11/09 12:29:20;;;;;;;6.07;1.00;;;;;;;;;;5015215;28;20033;-75
2022/11/09 12:31:55;;;;;;;9.57;1.40;;;;;;;;;;5028213;28;20035;-75
2022/11/09 12:34:21;;;;;;;5.68;1.83;;;;;;;;;;5025813;28;20053;-75
2022/11/09 12:36:53;;;;;;;6.63;1.60;;;;;;;;;;5014604;28;20812;-74
2022/11/09 12:39:19;;;;;;;4.70;1.05;;;;;;;;;;5031968;28;20743;-75
2022/11/09 12:41:47;;;;;;;6.18;1.38;;;;;;;;;;5014094;28;20045;-75
2022/11/09 12:44:16;;;;;;;8.23;1.30;;;;;;;;;;5016591;28;20053;-75
2022/11/09 12:47:03;;;;;;;8.32;1.13;;;;;;;;;;5030496;28;20041;-75
2022/11/09 12:49:35;;;;;;;6.65;1.30;;;;;;;;;;5026209;28;20099;-76
2022/11/09 12:52:01;;;;;;;5.03;0.85;;;;;;;;;;4979407;28;1085670;-74
2022/11/09 12:54:27;;;;;;;9.45;1.08;;;;;;;;;;5018126;28;20026;-75
2022/11/09 12:56:56;;;;;;;4.82;1.13;;;;;;;;;;5025687;28;20163;-75
2022/11/09 12:59:28;;;;;;;41.90;5.20;;;;;;;;;;5027394;28;20029;-75
2022/11/09 13:01:56;;;;;;;3.75;0.70;;;;;;;;;;5016578;28;20030;-75
2022/11/09 13:04:23;;;;;;;8.30;1.33;;;;;;;;;;5016824;28;20026;-75
2022/11/09 13:07:09;;;;;;;6.82;1.27;;;;;;;;;;5017522;28;20018;-76
2022/11/09 13:09:35;;;;;;;7.75;1.45;;;;;;;;;;5015244;28;20057;-77
2022/11/09 13:12:21;;;;;;;5.30;1.10;;;;;;;;;;5016178;28;20037;-77
2022/11/09 13:14:47;;;;;;;12.27;1.33;;;;;;;;;;5008825;28;20100;-77
2022/11/09 13:17:23;;;;;;;5.90;1.17;;;;;;;;;;5019276;28;20037;-78
2022/11/09 13:19:51;;;;;;;6.75;1.15;;;;;;;;;;5015581;28;20069;-77
2022/11/09 13:22:20;;;;;;;6.70;0.98;;;;;;;;;;5016511;28;20147;-77
2022/11/09 13:25:02;;;;;;;6.10;1.23;;;;;;;;;;5015012;28;20120;-77
2022/11/09 13:27:47;;;;;;;8.27;1.13;;;;;;;;;;5016181;28;20068;-77
2022/11/09 13:30:22;;;;;;;14.10;1.63;;;;;;;;;;5016091;28;20470;-78
2022/11/09 13:33:08;;;;;;;5.75;1.08;;;;;;;;;;5016738;28;20037;-78
2022/11/09 13:35:40;;;;;;;3.90;1.25;;;;;;;;;;5024023;28;20079;-78
2022/11/09 13:38:22;;;;;;;8.68;1.60;;;;;;;;;;5024667;28;20037;-77
2022/11/09 13:40:57;;;;;;;5.03;1.25;;;;;;;;;;5017090;28;20034;-78
2022/11/09 13:43:25;;;;;;;6.63;1.30;;;;;;;;;;5033557;28;20837;-77
2022/11/09 13:45:59;;;;;;;5.93;1.17;;;;;;;;;;5018025;28;20049;-77
2022/11/09 13:48:33;;;;;;;5.35;1.08;;;;;;;;;;5015262;28;20367;-77
2022/11/09 13:51:11;;;;;;;5.03;1.13;;;;;;;;;;5030859;28;20100;-77
2022/11/09 13:53:37;;;;;;;7.55;1.15;;;;;;;;;;5015618;28;20101;-77
2022/11/09 13:56:18;;;;;;;4.97;1.20;;;;;;;;;;5014821;28;20041;-76
2022/11/09 13:58:45;;;;;;;6.32;1.50;;;;;;;;;;5015983;28;20037;-77
2022/11/09 14:01:37;;;;;;;8.75;1.48;;;;;;;;;;5013985;28;20038;-77
2022/11/09 14:04:03;;;;;;;8.70;1.73;;;;;;;;;;5017043;28;20041;-74
2022/11/09 14:06:29;;;;;;;6.93;1.02;;;;;;;;;;5015956;28;20101;-78
2022/11/09 14:08:56;;;;;;;7.40;1.58;;;;;;;;;;5015589;28;20033;-75
2022/11/09 14:11:32;;;;;;;8.30;1.80;;;;;;;;;;5017675;28;20030;-77
2022/11/09 14:14:10;;;;;;;6.35;1.73;;;;;;;;;;5027485;28;20362;-77
2022/11/09 14:16:41;;;;;;;11.15;2.50;;;;;;;;;;5015912;28;20040;-75
2022/11/09 14:19:26;;;;;;;7.70;1.50;;;;;;;;;;5012847;28;20049;-75
2022/11/09 14:21:52;;;;;;;7.13;1.65;;;;;;;;;;5015326;28;20044;-74
2022/11/09 14:24:23;;;;;;;3.75;0.90;;;;;;;;;;5014937;28;20029;-75
2022/11/09 14:27:08;;;;;;;8.13;1.35;;;;;;;;;;5023979;28;20500;-75
2022/11/09 14:29:34;;;;;;;8.88;1.42;;;;;;;;;;5016234;28;20098;-75
2022/11/09 14:32:01;;;;;;;5.10;0.90;;;;;;;;;;5014077;28;20128;-76
2022/11/09 14:34:27;;;;;;;4.80;1.80;;;;;;;;;;5016217;28;20029;-75
2022/11/09 14:36:54;;;;;;;4.30;1.05;;;;;;;;;;5014997;28;20045;-76
2022/11/09 14:39:27;;;;;;;6.47;1.13;;;;;;;;;;5015644;28;20071;-74
2022/11/09 14:41:56;;;;;;;5.40;1.35;;;;;;;;;;5016062;28;20105;-75
2022/11/09 14:44:22;;;;;;;6.40;1.45;;;;;;;;;;5016773;28;20042;-74
2022/11/09 14:46:52;;;;;;;7.22;1.58;;;;;;;;;;5015791;28;20034;-76
2022/11/09 14:49:19;;;;;;;5.10;1.30;;;;;;;;;;5016437;28;20042;-76
2022/11/09 14:51:47;;;;;;;7.25;1.67;;;;;;;;;;5017484;28;20052;-76
2022/11/09 14:54:14;;;;;;;3.67;1.13;;;;;;;;;;5012919;28;20050;-76